Time;durP1;ratioP1;P1;durP2;ratioP2;P2;SDS_P1;SDS_P2;PMS_P1;PMS_P2;Temp;Humidity;BMP_temperature;BMP_pressure;BME280_temperature;BME280_humidity;BME280_pressure;Samples;Min_cycle;Max_cycle;Signal;HPM_P1;HPM_P2
2022/05/10 00:01:21;;;;;;;1.80;1.65;;;;;;;19.44;47.07;97538.44;10280319;28;20438;-91
2022/05/10 00:06:48;;;;;;;1.80;1.70;;;;;;;19.45;47.04;97538.16;10260804;28;20050;-91
2022/05/10 00:12:10;;;;;;;2.10;1.90;;;;;;;19.43;47.04;97529.56;10257186;28;20088;-91
2022/05/10 00:17:36;;;;;;;1.80;1.70;;;;;;;19.43;46.99;97524.16;10266262;28;20058;-92
2022/05/10 00:22:56;;;;;;;2.00;1.80;;;;;;;19.42;47.09;97522.53;10265157;28;20474;-91
2022/05/10 00:28:17;;;;;;;2.03;1.67;;;;;;;19.43;47.24;97523.34;10243856;28;20058;-92
2022/05/10 00:33:37;;;;;;;1.48;1.38;;;;;;;19.42;47.23;97517.13;10239414;28;20045;-92
2022/05/10 00:38:59;;;;;;;1.70;1.60;;;;;;;19.42;47.19;97519.03;10234787;28;20084;-92
2022/05/10 00:44:39;;;;;;;2.33;1.73;;;;;;;19.41;47.22;97518.25;10245882;28;20063;-92
2022/05/10 00:50:27;;;;;;;1.70;1.60;;;;;;;19.42;47.23;97505.53;10239790;28;20454;-91
2022/05/10 00:55:57;;;;;;;1.98;1.70;;;;;;;19.41;47.28;97498.56;10244344;28;20070;-92
2022/05/10 01:01:23;;;;;;;1.70;1.60;;;;;;;19.40;47.28;97500.44;10219220;28;20055;-92
2022/05/10 01:06:49;;;;;;;1.85;1.67;;;;;;;19.40;47.25;97484.22;10235867;28;20568;-91
2022/05/10 01:12:20;;;;;;;1.70;1.52;;;;;;;19.40;47.40;97486.13;10262829;28;20720;-92
2022/05/10 01:17:41;;;;;;;1.52;1.42;;;;;;;19.39;47.23;97485.34;10281811;28;20425;-91
2022/05/10 01:23:38;;;;;;;;;;;;;;;19.38;47.31;97478.31;10249296;28;20062;-92
2022/05/10 01:29:06;;;;;;;1.80;1.70;;;;;;;19.38;47.21;97478.31;10233861;28;20443;-92
2022/05/10 01:34:27;;;;;;;1.80;1.70;;;;;;;19.38;47.25;97472.91;10246154;28;20411;-91
2022/05/10 01:39:52;;;;;;;1.75;1.52;;;;;;;19.39;47.37;97474.53;10242026;28;20503;-91
2022/05/10 01:45:29;;;;;;;1.70;1.60;;;;;;;19.38;47.28;97469.44;10246632;28;20058;-92
2022/05/10 01:51:17;;;;;;;1.52;1.42;;;;;;;19.37;47.35;97471.34;10278940;28;20043;-92
2022/05/10 01:56:43;;;;;;;1.60;1.50;;;;;;;19.36;47.24;97473.22;10257514;28;20130;-91
2022/05/10 02:02:04;;;;;;;1.50;1.40;;;;;;;19.35;47.03;97468.16;10263776;28;20584;-92
2022/05/10 02:07:26;;;;;;;1.55;1.45;;;;;;;19.35;47.30;97460.81;10266388;28;20043;-91
2022/05/10 02:13:07;;;;;;;1.50;1.40;;;;;;;19.35;47.33;97460.03;10244473;29;20051;-91
2022/05/10 02:18:42;;;;;;;1.45;1.35;;;;;;;19.35;47.31;97457.34;10246520;28;20406;-91
2022/05/10 02:24:19;;;;;;;1.63;1.40;;;;;;;19.34;47.36;97455.72;10253518;28;20426;-92
2022/05/10 02:29:44;;;;;;;1.57;1.47;;;;;;;19.34;47.41;97450.31;10246526;28;20043;-91
2022/05/10 02:35:13;;;;;;;1.55;1.45;;;;;;;19.33;47.50;97449.53;10253141;28;20414;-92
2022/05/10 02:40:41;;;;;;;1.38;1.27;;;;;;;19.32;47.38;97453.31;10265524;28;20391;-91
2022/05/10 02:46:08;;;;;;;1.40;1.30;;;;;;;19.33;47.53;97446.03;10245441;28;20055;-92
2022/05/10 02:51:41;;;;;;;1.30;1.20;;;;;;;19.32;47.38;97452.53;10250981;28;20138;-91
2022/05/10 02:57:05;;;;;;;1.45;1.35;;;;;;;19.33;47.51;97451.44;10270983;28;20054;-92
2022/05/10 03:02:41;;;;;;;1.48;1.38;;;;;;;19.32;47.32;97436.31;10245260;28;20047;-91
2022/05/10 03:08:05;;;;;;;1.35;1.13;;;;;;;19.31;47.45;97438.22;10251840;28;20057;-92
2022/05/10 03:13:25;;;;;;;1.38;1.27;;;;;;;19.31;47.62;97445.56;10267605;28;20110;-91
2022/05/10 03:18:46;;;;;;;1.30;1.20;;;;;;;19.30;47.52;97450.13;10261214;28;20051;-91
2022/05/10 03:24:06;;;;;;;1.48;1.27;;;;;;;19.31;47.47;97448.25;10256015;28;20050;-91
2022/05/10 03:29:27;;;;;;;1.20;1.10;;;;;;;19.30;47.51;97452.03;10244418;28;20039;-91
2022/05/10 03:34:54;;;;;;;1.30;1.20;;;;;;;19.29;47.50;97450.47;10266297;28;20066;-91
2022/05/10 03:40:17;;;;;;;1.60;1.50;;;;;;;19.30;47.40;97460.16;10254462;28;20047;-92
2022/05/10 03:45:37;;;;;;;1.50;1.40;;;;;;;19.28;47.53;97457.75;10260636;28;20121;-91
2022/05/10 03:50:57;;;;;;;1.30;1.20;;;;;;;19.28;47.45;97457.75;10237449;28;20130;-92
2022/05/10 03:56:18;;;;;;;1.30;1.20;;;;;;;19.28;47.53;97457.75;10250701;28;20047;-91
2022/05/10 04:01:38;;;;;;;1.52;1.27;;;;;;;19.28;47.46;97456.94;10273960;28;20461;-91
2022/05/10 04:06:58;;;;;;;1.10;1.00;;;;;;;19.27;47.51;97458.88;10264086;28;20039;-91
2022/05/10 04:12:17;;;;;;;1.42;1.20;;;;;;;19.27;47.59;97456.16;10283054;28;20046;-92
2022/05/10 04:17:46;;;;;;;1.30;1.20;;;;;;;19.28;48.39;97456.94;10255525;28;20039;-92
2022/05/10 04:23:25;;;;;;;1.17;1.08;;;;;;;19.27;48.71;97456.16;10252019;28;20407;-92
2022/05/10 04:28:54;;;;;;;1.27;1.20;;;;;;;19.29;48.65;97461.28;10252153;28;20039;-92
2022/05/10 04:34:24;;;;;;;1.25;1.15;;;;;;;19.27;48.40;97456.16;10235663;28;20421;-92
2022/05/10 04:46:07;;;;;;;;;;;;;;;19.31;49.26;97467.16;10281274;28;20058;-92
2022/05/10 04:51:28;;;;;;;3.47;1.20;;;;;;;19.32;49.07;97464.13;10260035;28;19938;-92
2022/05/10 04:57:01;;;;;;;1.63;1.33;;;;;;;19.34;49.06;97463.84;10221291;28;20062;-92
2022/05/10 05:02:26;;;;;;;6.47;2.58;;;;;;;19.33;47.71;97475.75;10185612;28;20046;-91
2022/05/10 05:07:47;;;;;;;7.47;3.22;;;;;;;19.24;47.11;97475.66;10205373;29;20240;-92
2022/05/10 05:13:09;;;;;;;3.97;2.35;;;;;;;19.23;47.50;97475.97;10175677;29;20112;-91
2022/05/10 05:18:55;;;;;;;4.68;2.20;;;;;;;19.25;47.97;97471.88;10199754;29;20098;-92
2022/05/10 05:24:16;;;;;;;6.70;2.55;;;;;;;19.26;48.16;97464.56;10195953;28;20134;-92
2022/05/10 05:29:37;;;;;;;5.50;2.72;;;;;;;19.28;48.37;97467.75;10262047;28;20054;-91
2022/05/10 05:35:00;;;;;;;7.97;2.97;;;;;;;19.28;48.20;97463.16;10253093;28;20046;-92
2022/05/10 05:40:21;;;;;;;7.25;3.25;;;;;;;19.29;48.26;97463.97;10271023;28;20126;-92
2022/05/10 05:45:41;;;;;;;5.78;2.95;;;;;;;19.28;48.20;97463.16;10255390;28;20182;-92
2022/05/10 05:51:05;;;;;;;5.25;3.17;;;;;;;19.28;48.26;97468.56;10259177;28;20686;-91
2022/05/10 05:56:25;;;;;;;5.57;3.20;;;;;;;19.28;48.32;97460.44;10244974;28;20065;-92
2022/05/10 06:01:45;;;;;;;5.82;3.00;;;;;;;19.27;48.42;97466.97;10226988;28;20051;-92
2022/05/10 06:07:05;;;;;;;4.97;3.00;;;;;;;19.28;48.36;97459.66;10228192;28;20082;-91
2022/05/10 06:12:25;;;;;;;8.40;3.10;;;;;;;19.29;48.26;97472.06;10247143;28;20042;-92
2022/05/10 06:17:48;;;;;;;4.57;2.75;;;;;;;19.29;48.34;97455.88;10273035;28;20050;-92
2022/05/10 06:23:09;;;;;;;5.63;3.08;;;;;;;19.28;48.35;97463.16;10250191;28;20047;-92
2022/05/10 06:28:29;;;;;;;6.70;3.00;;;;;;;19.28;48.35;97459.66;10269701;28;20130;-91
2022/05/10 06:33:49;;;;;;;4.20;2.88;;;;;;;19.29;48.23;97455.88;10253300;28;20065;-92
2022/05/10 06:39:12;;;;;;;5.35;3.00;;;;;;;19.29;48.41;97469.38;10264497;28;20054;-93
2022/05/10 06:44:33;;;;;;;4.68;2.92;;;;;;;19.28;48.50;97463.16;10269437;28;20058;-91
2022/05/10 06:49:52;;;;;;;4.70;2.85;;;;;;;19.29;48.61;97461.28;10269042;28;20043;-92
2022/05/10 06:55:17;;;;;;;5.30;3.10;;;;;;;19.29;48.40;97470.16;10283490;28;20616;-91
2022/05/10 07:00:39;;;;;;;5.32;2.88;;;;;;;19.30;48.57;97468.25;10256636;28;20061;-91
2022/05/10 07:06:00;;;;;;;3.65;2.80;;;;;;;19.29;48.37;97458.56;10269020;28;20050;-92
2022/05/10 07:11:21;;;;;;;4.78;2.88;;;;;;;19.29;48.42;97453.97;10268376;28;20069;-91
2022/05/10 07:16:40;;;;;;;3.80;3.03;;;;;;;19.30;48.42;97454.75;10227558;28;20134;-91
2022/05/10 07:22:01;;;;;;;4.38;2.88;;;;;;;19.29;48.51;97455.88;10265985;28;20105;-92
2022/05/10 07:27:21;;;;;;;4.57;2.75;;;;;;;19.29;48.49;97453.16;10281764;28;20054;-92
2022/05/10 07:32:42;;;;;;;4.15;2.90;;;;;;;19.31;48.53;97448.25;10245100;28;20054;-92
2022/05/10 07:38:07;;;;;;;4.13;2.90;;;;;;;19.29;48.40;97443.16;10279692;28;20086;-93
2022/05/10 07:43:28;;;;;;;3.60;2.72;;;;;;;19.30;48.46;97442.03;10227611;28;20057;-92
2022/05/10 07:48:49;;;;;;;3.72;2.90;;;;;;;19.30;48.37;97436.63;10273473;28;20061;-92
2022/05/10 07:54:09;;;;;;;3.78;3.13;;;;;;;19.30;48.23;97439.31;10283791;28;20039;-92
2022/05/10 07:59:32;;;;;;;4.97;3.00;;;;;;;19.31;48.29;97434.75;10258041;28;20055;-92
2022/05/10 08:04:54;;;;;;;3.30;3.00;;;;;;;19.30;48.23;97433.94;10267806;28;20101;-91
2022/05/10 08:10:17;;;;;;;3.60;2.88;;;;;;;19.31;48.41;97432.03;10277453;28;20047;-92
2022/05/10 08:15:39;;;;;;;4.07;2.65;;;;;;;19.31;48.25;97432.84;10249661;28;20133;-91
2022/05/10 08:20:59;;;;;;;2.90;2.63;;;;;;;19.32;48.25;97425.53;10250914;28;20051;-91
2022/05/10 08:26:20;;;;;;;4.05;3.08;;;;;;;19.32;48.41;97426.31;10219818;28;20065;-92
2022/05/10 08:31:44;;;;;;;3.22;2.90;;;;;;;19.32;48.46;97414.72;10258513;28;20398;-92
2022/05/10 08:37:08;;;;;;;4.75;2.40;;;;;;;19.32;48.45;97425.53;10269532;28;20046;-92
2022/05/10 08:42:31;;;;;;;3.60;2.70;;;;;;;19.32;48.71;97425.53;10291162;28;20073;-92
2022/05/10 08:47:52;;;;;;;7.60;3.38;;;;;;;19.33;49.14;97410.91;10273954;28;20133;-92
2022/05/10 08:53:13;;;;;;;6.18;3.10;;;;;;;19.33;49.87;97419.03;10266129;28;20128;-91
2022/05/10 08:58:39;;;;;;;5.40;3.17;;;;;;;19.34;49.59;97412.50;10278986;28;20058;-91
2022/05/10 09:04:11;;;;;;;4.70;3.10;;;;;;;19.33;49.52;97405.53;10231964;28;20039;-91
2022/05/10 09:09:50;;;;;;;7.00;3.15;;;;;;;19.33;49.53;97405.53;10255467;28;20063;-91
2022/05/10 09:15:12;;;;;;;5.10;3.10;;;;;;;19.32;49.47;97399.28;10251993;28;20047;-91
2022/05/10 09:20:36;;;;;;;4.57;2.70;;;;;;;19.34;49.49;97397.09;10257171;28;20054;-92
2022/05/10 09:25:59;;;;;;;4.93;2.85;;;;;;;19.33;49.38;97389.31;10269656;28;20077;-91
2022/05/10 09:37:26;;;;;;;4.65;2.65;;;;;;;19.36;49.50;97383.28;10244542;28;20058;-92
2022/05/10 09:42:50;;;;;;;3.17;2.60;;;;;;;19.35;49.32;97376.28;10259884;28;20066;-92
2022/05/10 09:48:15;;;;;;;3.45;2.97;;;;;;;19.34;49.39;97380.88;10270514;28;20047;-92
2022/05/10 09:53:35;;;;;;;2.60;2.30;;;;;;;19.34;49.33;97369.28;10261683;28;20506;-91
2022/05/10 09:59:03;;;;;;;4.07;2.70;;;;;;;19.34;49.33;97375.47;10282006;28;20138;-92
2022/05/10 10:04:32;;;;;;;3.55;2.58;;;;;;;19.34;49.44;97372.75;10253290;28;20085;-92
2022/05/10 10:09:55;;;;;;;3.72;2.53;;;;;;;19.35;49.29;97360.88;10276996;28;20046;-91
2022/05/10 10:15:38;;;;;;;3.50;2.70;;;;;;;19.34;49.32;97363.88;10282145;28;20625;-92
2022/05/10 10:20:59;;;;;;;3.22;2.20;;;;;;;19.34;49.26;97351.16;10253108;28;20050;-92
2022/05/10 10:26:38;;;;;;;2.95;2.47;;;;;;;19.35;49.24;97355.47;10278465;28;20051;-92
2022/05/10 10:32:20;;;;;;;2.33;2.10;;;;;;;19.35;49.28;97351.97;10277157;28;20457;-92
2022/05/10 10:38:29;;;;;;;3.13;2.35;;;;;;;19.34;49.42;97353.84;10268088;28;20126;-92
2022/05/10 10:44:15;;;;;;;2.78;2.33;;;;;;;19.33;49.44;97352.28;10144447;29;20103;-91
2022/05/10 10:49:47;;;;;;;3.15;2.15;;;;;;;19.34;49.09;97350.38;10258215;28;20089;-91
2022/05/10 10:55:11;;;;;;;3.30;2.28;;;;;;;19.35;49.25;97341.16;10307006;28;20067;-92
2022/05/10 11:00:59;;;;;;;3.80;2.20;;;;;;;19.35;49.28;97338.47;10227482;28;20456;-91
2022/05/10 11:06:28;;;;;;;3.83;2.75;;;;;;;19.34;49.17;97326.84;10228373;29;20056;-91
2022/05/10 11:12:13;;;;;;;2.40;2.20;;;;;;;19.36;49.09;97318.44;10194901;29;20490;-92
2022/05/10 11:17:49;;;;;;;3.95;2.70;;;;;;;19.37;49.17;97317.34;10235607;28;20618;-91
2022/05/10 11:23:29;;;;;;;2.75;2.47;;;;;;;19.37;49.24;97306.53;10219736;28;20055;-91
2022/05/10 11:29:20;;;;;;;2.25;2.03;;;;;;;19.36;49.18;97296.81;10221162;29;20051;-92
2022/05/10 11:34:46;;;;;;;3.65;2.30;;;;;;;19.36;49.02;97286.00;10243370;28;20050;-91
2022/05/10 11:40:37;;;;;;;2.80;2.50;;;;;;;19.35;49.19;97293.31;10211060;28;20055;-92
2022/05/10 11:46:31;;;;;;;3.67;2.45;;;;;;;19.35;49.03;97287.13;10241971;29;20046;-91
2022/05/10 11:52:30;;;;;;;2.33;2.13;;;;;;;19.35;48.89;97274.41;10203857;29;20490;-92
2022/05/10 11:57:56;;;;;;;2.33;2.13;;;;;;;19.36;48.95;97272.50;10291795;28;20475;-92
2022/05/10 12:03:43;;;;;;;2.17;2.05;;;;;;;19.37;48.95;97276.81;10220737;29;20122;-91
2022/05/10 12:09:05;;;;;;;4.40;2.53;;;;;;;19.36;48.87;97259.00;10259904;28;20050;-91
2022/05/10 12:26:36;;;;;;;2.88;2.67;;;;;;;19.39;48.86;97249.50;10240946;28;20051;-92
2022/05/10 12:32:02;;;;;;;2.50;2.30;;;;;;;19.38;48.87;97240.56;10238191;29;20106;-92
2022/05/10 12:37:28;;;;;;;2.53;2.33;;;;;;;19.37;48.85;97233.59;10247058;28;20059;-91
2022/05/10 12:43:37;;;;;;;2.80;2.42;;;;;;;19.40;48.73;97229.44;10254309;28;20042;-92
2022/05/10 12:49:16;;;;;;;2.70;2.50;;;;;;;19.40;48.80;97221.34;10221876;28;20059;-92
2022/05/10 12:54:40;;;;;;;3.63;2.28;;;;;;;19.41;49.00;97207.53;10240282;28;20044;-92
2022/05/10 13:00:07;;;;;;;2.72;2.20;;;;;;;19.43;49.23;97204.53;10232275;28;20046;-91
2022/05/10 13:05:40;;;;;;;10.77;5.97;;;;;;;19.46;48.84;97195.78;10239844;28;20419;-92
2022/05/10 13:11:00;;;;;;;38.45;31.45;;;;;;;19.50;51.03;97184.03;10214516;29;20125;-92
2022/05/10 13:16:25;;;;;;;47.85;33.75;;;;;;;19.51;51.85;97174.03;10218622;29;20059;-92
2022/05/10 13:21:45;;;;;;;29.30;21.40;;;;;;;19.54;51.36;97168.78;10229302;29;20055;-91
2022/05/10 13:27:26;;;;;;;25.60;19.95;;;;;;;19.60;50.71;97164.03;10240669;29;20066;-92
2022/05/10 13:32:50;;;;;;;20.88;17.00;;;;;;;19.65;49.65;97165.78;10242395;29;20071;-92
2022/05/10 13:38:19;;;;;;;20.42;15.40;;;;;;;19.66;49.21;97148.44;10228419;29;20615;-92
2022/05/10 13:43:43;;;;;;;18.35;13.20;;;;;;;19.68;48.94;97140.81;10210868;29;20500;-92
2022/05/10 13:49:09;;;;;;;15.60;12.65;;;;;;;19.69;48.75;97137.78;10231263;28;20405;-92
2022/05/10 13:54:29;;;;;;;12.70;10.40;;;;;;;19.69;48.83;97124.28;10252352;28;20042;-92
2022/05/10 13:59:49;;;;;;;10.68;9.57;;;;;;;19.73;48.71;97127.19;10221643;29;20211;-91
2022/05/10 14:05:16;;;;;;;11.52;9.40;;;;;;;19.74;48.50;97118.75;10203430;29;20046;-92
2022/05/10 14:10:37;;;;;;;10.50;8.05;;;;;;;19.77;48.15;97111.13;10192989;29;20055;-92
2022/05/10 14:15:59;;;;;;;9.07;7.13;;;;;;;19.80;47.61;97105.06;10214518;28;20075;-92
2022/05/10 14:21:23;;;;;;;7.93;6.22;;;;;;;19.86;47.19;97098.41;10222797;28;20391;-92
2022/05/10 14:26:47;;;;;;;11.23;5.60;;;;;;;19.90;46.24;97086.63;10222441;28;20505;-92
2022/05/10 14:32:08;;;;;;;6.07;5.00;;;;;;;19.93;46.21;97087.91;10215420;29;20050;-91
2022/05/10 14:37:29;;;;;;;5.93;5.03;;;;;;;19.95;46.31;97085.66;10224843;28;20050;-92
2022/05/10 14:43:11;;;;;;;5.30;4.80;;;;;;;19.97;45.94;97077.25;10246667;29;20066;-92
2022/05/10 14:48:45;;;;;;;5.68;4.30;;;;;;;19.98;46.05;97065.31;10230201;28;20048;-92
2022/05/10 14:54:10;;;;;;;6.63;4.60;;;;;;;19.99;46.30;97053.38;10223519;29;20043;-92
2022/05/10 14:59:48;;;;;;;4.88;3.88;;;;;;;19.98;46.21;97054.50;10215024;29;20147;-92
2022/05/10 15:05:41;;;;;;;4.43;2.93;;;;;;;19.94;45.14;97047.03;10209381;29;20053;-94
2022/05/10 15:24:01;;;;;;;3.58;2.20;;;;;;;19.90;43.48;97029.84;10237741;29;20051;-94
2022/05/10 15:30:26;;;;;;;3.23;2.33;;;;;;;19.88;44.50;97020.47;10242325;29;20047;-94
2022/05/10 15:36:50;;;;;;;3.22;2.30;;;;;;;19.93;44.21;97021.13;10282908;28;20039;-94
2022/05/10 15:43:13;;;;;;;2.92;2.33;;;;;;;19.92;44.54;97018.72;10209604;28;20055;-94
2022/05/10 15:48:34;;;;;;;3.85;1.92;;;;;;;19.90;44.72;97015.53;10239120;28;20036;-94
2022/05/10 15:54:55;;;;;;;2.40;2.20;;;;;;;19.89;43.60;97014.72;10242397;28;20051;-94
2022/05/10 16:00:49;;;;;;;5.15;2.25;;;;;;;19.93;43.26;97006.78;10272097;28;20055;-93
2022/05/10 16:06:30;;;;;;;2.05;1.92;;;;;;;19.94;42.78;97014.56;10272073;28;20091;-93
2022/05/10 16:11:57;;;;;;;2.25;1.83;;;;;;;19.94;43.33;96997.56;10251627;28;20082;-92
2022/05/10 16:17:20;;;;;;;2.97;2.10;;;;;;;19.93;43.46;97001.38;10271053;28;20046;-92
2022/05/10 16:22:43;;;;;;;2.85;2.03;;;;;;;19.89;43.61;96995.81;10236282;28;20047;-93
2022/05/10 16:35:18;;;;;;;2.00;1.80;;;;;;;19.87;43.49;96986.44;10244060;29;20180;-94
2022/05/10 16:41:24;;;;;;;4.38;2.00;;;;;;;19.88;43.88;96988.03;10249156;28;20148;-94
2022/05/10 16:54:19;;;;;;;4.28;2.28;;;;;;;19.82;44.24;96982.00;10222927;28;20032;-94
2022/05/10 16:59:39;;;;;;;3.17;2.00;;;;;;;19.79;44.41;96973.75;10253936;28;20066;-49
2022/05/10 17:05:00;;;;;;;2.30;2.10;;;;;;;19.75;45.06;96974.38;10263942;28;20062;-52
2022/05/10 17:10:23;;;;;;;2.97;2.10;;;;;;;19.73;45.50;96968.50;10252584;28;20065;-48
2022/05/10 17:15:43;;;;;;;2.40;1.80;;;;;;;19.72;45.08;96969.63;10260335;28;20110;-49
2022/05/10 17:21:02;;;;;;;2.15;1.95;;;;;;;19.72;44.38;96964.22;10281785;28;20047;-50
2022/05/10 17:26:22;;;;;;;2.30;1.90;;;;;;;19.72;44.18;96963.44;10251959;28;20055;-48
2022/05/10 17:31:41;;;;;;;2.75;2.10;;;;;;;19.71;44.04;96978.00;10261108;28;20114;-48
2022/05/10 17:37:01;;;;;;;4.65;2.17;;;;;;;19.70;44.59;96961.00;10252297;28;20479;-49
2022/05/10 17:42:22;;;;;;;4.80;1.98;;;;;;;19.67;44.81;96956.22;10267973;28;20141;-49
2022/05/10 17:47:43;;;;;;;3.38;2.33;;;;;;;19.65;45.28;96960.38;10245284;28;20059;-50
2022/05/10 17:53:03;;;;;;;3.30;2.40;;;;;;;19.63;45.43;96966.09;10247499;28;20106;-49
2022/05/10 17:58:22;;;;;;;4.03;2.30;;;;;;;19.60;46.41;96961.34;10241928;28;20063;-48
2022/05/10 18:03:42;;;;;;;3.65;2.20;;;;;;;19.58;45.84;96960.84;10244853;28;20490;-49
2022/05/10 18:09:03;;;;;;;3.80;2.60;;;;;;;19.58;46.02;96950.03;10236117;28;20421;-49
2022/05/10 18:14:22;;;;;;;3.10;2.30;;;;;;;19.60;46.01;96960.53;10238788;28;20054;-49
2022/05/10 18:19:42;;;;;;;4.85;2.45;;;;;;;19.56;45.83;96961.19;10249103;28;20066;-51
2022/05/10 18:25:02;;;;;;;3.15;2.40;;;;;;;19.54;45.63;96962.59;10246194;28;20124;-49
2022/05/10 18:30:23;;;;;;;2.38;2.17;;;;;;;19.53;45.76;96961.81;10249948;28;20055;-50
2022/05/10 18:35:45;;;;;;;3.70;2.22;;;;;;;19.55;46.14;96959.59;10263434;28;20051;-50
2022/05/10 18:41:09;;;;;;;3.70;2.72;;;;;;;19.54;46.38;96960.72;10254870;28;20511;-47
2022/05/10 18:46:32;;;;;;;2.50;2.30;;;;;;;19.56;46.56;96961.19;10244078;28;20047;-47
2022/05/10 18:51:52;;;;;;;3.78;2.30;;;;;;;19.54;46.25;96963.41;10242146;28;20110;-47
2022/05/10 18:57:14;;;;;;;4.05;2.50;;;;;;;19.51;46.54;96972.16;10252649;28;20059;-47
2022/05/10 19:02:33;;;;;;;3.03;2.65;;;;;;;19.50;46.10;96972.47;10260582;28;20051;-49
2022/05/10 19:07:54;;;;;;;2.85;2.55;;;;;;;19.45;45.54;96973.44;10230866;28;20060;-47
2022/05/10 19:13:14;;;;;;;3.50;2.80;;;;;;;19.47;45.87;96975.81;10248291;28;20134;-48
2022/05/10 19:18:33;;;;;;;5.45;2.85;;;;;;;19.49;46.48;96976.28;10259674;28;20046;-46
2022/05/10 19:23:53;;;;;;;4.32;2.50;;;;;;;19.51;47.13;96980.25;10243866;28;20051;-48
2022/05/10 19:29:12;;;;;;;2.53;2.33;;;;;;;19.53;47.48;96988.84;10269327;28;20055;-46
2022/05/10 19:34:32;;;;;;;6.70;2.67;;;;;;;19.53;47.75;96985.34;10264382;28;20047;-46
2022/05/10 19:39:52;;;;;;;4.22;2.50;;;;;;;19.54;48.45;96984.22;10264299;28;20043;-46
2022/05/10 19:45:12;;;;;;;2.88;2.45;;;;;;;19.56;48.72;96990.09;10250686;29;20055;-47
2022/05/10 19:50:32;;;;;;;4.40;2.40;;;;;;;19.55;49.09;96992.00;10258479;28;20201;-50
2022/05/10 19:55:53;;;;;;;3.50;2.33;;;;;;;19.56;49.32;96990.91;10239348;29;20051;-47
2022/05/10 20:05:21;;;;;;;2.88;2.47;;;;;;;19.55;49.61;96992.00;10250148;29;20058;-48
2022/05/10 20:06:52;;;;;;;3.90;2.70;;;;;;;19.55;49.94;96985.81;10250980;29;20068;-47
2022/05/10 20:12:12;;;;;;;3.13;2.40;;;;;;;19.56;50.01;96984.69;10247500;29;20058;-47
2022/05/10 20:17:31;;;;;;;3.25;2.35;;;;;;;19.56;50.32;96988.22;10260941;28;20102;-47
2022/05/10 20:22:54;;;;;;;3.40;2.22;;;;;;;19.57;50.66;96991.69;10236439;29;20106;-46
2022/05/10 20:28:17;;;;;;;3.85;2.63;;;;;;;19.58;50.91;96993.28;10246908;28;20415;-48
2022/05/10 20:33:36;;;;;;;3.72;2.65;;;;;;;19.59;51.77;96991.38;10244012;28;20063;-46
2022/05/10 20:38:55;;;;;;;2.70;2.50;;;;;;;19.62;52.19;96993.44;10260579;28;20050;-46
2022/05/10 20:44:15;;;;;;;2.67;2.47;;;;;;;19.63;52.24;96995.81;10239955;28;20519;-46
2022/05/10 20:49:34;;;;;;;3.70;2.50;;;;;;;19.64;52.21;97000.13;10207915;28;20109;-46
2022/05/10 20:54:55;;;;;;;2.60;2.40;;;;;;;19.65;52.15;96990.91;10220463;28;20354;-47
2022/05/10 21:00:17;;;;;;;2.30;2.10;;;;;;;19.67;52.31;96994.06;10223588;28;20078;-46
2022/05/10 21:05:38;;;;;;;2.42;2.22;;;;;;;19.68;52.36;96981.34;10216317;28;20051;-47
2022/05/10 21:11:04;;;;;;;3.45;2.50;;;;;;;19.68;52.24;96995.66;10214279;28;20048;-46
2022/05/10 21:16:30;;;;;;;2.83;2.60;;;;;;;19.69;52.37;96999.94;10237094;28;20565;-46
2022/05/10 21:22:08;;;;;;;2.60;2.40;;;;;;;19.69;51.92;97001.88;10248203;28;20047;-46
2022/05/10 21:27:46;;;;;;;2.43;2.23;;;;;;;19.66;51.84;96991.69;10249345;28;20055;-46
2022/05/10 21:33:09;;;;;;;2.45;2.25;;;;;;;19.65;51.97;96993.59;10251473;28;20081;-46
2022/05/10 21:38:28;;;;;;;3.63;2.30;;;;;;;19.65;52.29;96995.50;10255201;28;20058;-46
2022/05/10 21:43:48;;;;;;;2.30;2.10;;;;;;;19.64;52.59;96994.72;10249912;28;20047;-47
2022/05/10 21:49:07;;;;;;;2.17;2.00;;;;;;;19.63;52.70;96987.72;10287027;28;20063;-46
2022/05/10 21:54:27;;;;;;;2.65;2.45;;;;;;;19.62;52.78;96988.03;10267245;28;20505;-45
2022/05/10 21:59:47;;;;;;;2.03;1.90;;;;;;;19.63;52.99;96985.00;10264753;28;20047;-46
2022/05/10 22:05:06;;;;;;;2.17;1.98;;;;;;;19.62;53.15;96988.84;10251538;28;20055;-46
2022/05/10 22:10:26;;;;;;;2.90;2.08;;;;;;;19.62;53.11;96990.72;10251319;29;20461;-46
2022/05/10 22:15:45;;;;;;;2.03;1.92;;;;;;;19.63;53.21;96981.53;10254631;29;20047;-46
2022/05/10 22:21:05;;;;;;;2.05;1.85;;;;;;;19.62;53.43;96985.31;10252641;29;20614;-46
2022/05/10 22:26:24;;;;;;;2.50;2.30;;;;;;;19.62;53.42;96991.56;10238345;29;20051;-46
2022/05/10 22:31:44;;;;;;;2.47;2.08;;;;;;;19.62;53.48;96985.31;10248653;29;20112;-46
2022/05/10 22:37:04;;;;;;;2.60;2.28;;;;;;;19.61;53.52;96978.34;10239721;28;20487;-46
2022/05/10 22:42:24;;;;;;;2.42;2.22;;;;;;;19.62;53.70;96979.91;10220742;29;20067;-46
2022/05/10 22:47:43;;;;;;;2.92;2.30;;;;;;;19.61;53.64;96972.94;10228273;29;20048;-47
2022/05/10 22:53:02;;;;;;;2.40;2.20;;;;;;;19.60;53.79;96969.47;10213243;29;20051;-46
2022/05/10 22:58:22;;;;;;;2.40;2.20;;;;;;;19.60;53.79;96971.34;10245405;28;20062;-46
2022/05/10 23:03:41;;;;;;;2.30;2.10;;;;;;;19.61;53.95;96972.94;10251201;29;20554;-50
2022/05/10 23:09:01;;;;;;;2.25;2.05;;;;;;;19.60;53.99;96965.94;10251175;29;20051;-46
2022/05/10 23:14:20;;;;;;;2.40;2.20;;;;;;;19.60;53.96;96968.63;10251913;29;20047;-47
2022/05/10 23:19:40;;;;;;;2.30;2.10;;;;;;;19.60;54.04;96965.94;10251776;29;20063;-46
2022/05/10 23:25:01;;;;;;;2.30;2.10;;;;;;;19.61;54.02;96956.72;10257621;28;20040;-48
2022/05/10 23:30:22;;;;;;;2.08;1.98;;;;;;;19.60;54.16;96960.53;10250950;29;20063;-47
2022/05/10 23:35:42;;;;;;;2.25;1.77;;;;;;;19.59;54.16;96951.63;10250981;29;20400;-46
2022/05/10 23:41:02;;;;;;;2.65;1.90;;;;;;;19.60;54.14;96952.44;10245546;29;20058;-47
2022/05/10 23:46:22;;;;;;;2.08;1.92;;;;;;;19.59;54.16;96945.44;10265836;28;20059;-47
2022/05/10 23:51:44;;;;;;;2.03;1.92;;;;;;;19.60;54.11;96955.94;10252118;29;20115;-46
2022/05/10 23:57:04;;;;;;;2.08;1.98;;;;;;;19.60;54.28;96944.31;10248511;29;20070;-46
